createdAt,value
2018-07-31T00:00:10.958Z,93.70
2018-07-31T00:02:39.852Z,94.00
2018-07-31T00:05:08.914Z,94.20
2018-07-31T00:07:37.857Z,94.20
2018-07-31T00:10:07.112Z,94.70
2018-07-31T00:12:36.241Z,95.10
2018-07-31T00:15:07.698Z,95.40
2018-07-31T00:17:36.823Z,95.80
2018-07-31T00:20:05.960Z,95.70
2018-07-31T00:22:34.906Z,95.80
2018-07-31T00:25:03.963Z,95.70
2018-07-31T00:27:32.841Z,96.20
2018-07-31T00:30:01.712Z,96.40
2018-07-31T00:32:30.617Z,96.40
2018-07-31T00:34:59.493Z,96.50
2018-07-31T00:37:28.383Z,96.60
2018-07-31T00:39:57.260Z,96.80
2018-07-31T00:42:26.149Z,96.80
2018-07-31T00:44:54.984Z,96.70
2018-07-31T00:47:23.927Z,97.60
2018-07-31T00:49:52.780Z,97.40
2018-07-31T00:52:21.668Z,97.20
2018-07-31T00:54:50.640Z,97.60
2018-07-31T00:57:19.543Z,97.80
2018-07-31T00:59:48.391Z,98.60
2018-07-31T01:02:17.291Z,98.30
2018-07-31T01:04:46.196Z,98.30
2018-07-31T01:07:15.131Z,98.10
2018-07-31T01:09:44.068Z,98.40
2018-07-31T01:12:13.068Z,98.40
2018-07-31T01:14:42.022Z,98.80
2018-07-31T01:17:10.997Z,98.90
2018-07-31T01:19:39.959Z,99.10
2018-07-31T01:22:08.974Z,99.20
2018-07-31T01:24:37.976Z,99.30
2018-07-31T01:27:06.985Z,99.40
2018-07-31T01:29:35.972Z,99.80
2018-07-31T01:32:05.008Z,99.90
2018-07-31T01:34:34.291Z,99.90
2018-07-31T01:37:03.197Z,99.90
2018-07-31T01:39:32.117Z,99.90
2018-07-31T01:42:01.021Z,99.90
2018-07-31T01:44:29.938Z,99.90
2018-07-31T01:46:58.811Z,99.90
2018-07-31T01:49:27.745Z,99.90
2018-07-31T01:51:56.608Z,99.90
2018-07-31T01:54:25.524Z,99.90
2018-07-31T01:56:54.412Z,99.90
2018-07-31T01:59:23.328Z,99.90
2018-07-31T02:01:52.215Z,99.90
2018-07-31T02:04:21.119Z,99.90
2018-07-31T02:06:50.048Z,99.90
2018-07-31T02:09:18.959Z,99.90
2018-07-31T02:11:47.877Z,99.90
2018-07-31T02:14:16.795Z,99.90
2018-07-31T02:16:45.682Z,99.90
2018-07-31T02:19:14.596Z,99.90
2018-07-31T02:21:43.572Z,99.90
2018-07-31T02:24:12.732Z,99.90
2018-07-31T02:26:41.826Z,99.90
2018-07-31T02:29:11.673Z,99.90
2018-07-31T02:31:40.540Z,99.90
2018-07-31T02:34:09.481Z,99.90
2018-07-31T02:36:38.463Z,99.90
2018-07-31T02:39:08.840Z,99.90
2018-07-31T02:41:37.800Z,99.90
2018-07-31T02:44:06.793Z,99.90
2018-07-31T02:46:35.860Z,99.90
2018-07-31T02:49:05.046Z,99.90
2018-07-31T02:51:33.960Z,99.90
2018-07-31T02:54:02.875Z,99.90
2018-07-31T02:56:31.813Z,99.90
2018-07-31T02:59:00.690Z,99.90
2018-07-31T03:01:29.612Z,99.90
2018-07-31T03:03:58.522Z,99.90
2018-07-31T03:06:27.416Z,99.90
2018-07-31T03:08:56.279Z,99.90
2018-07-31T03:11:25.216Z,99.90
2018-07-31T03:13:54.133Z,99.90
2018-07-31T03:16:23.078Z,99.90
2018-07-31T03:18:51.956Z,99.90
2018-07-31T03:21:20.832Z,99.90
2018-07-31T03:23:49.699Z,99.90
2018-07-31T03:26:18.597Z,99.90
2018-07-31T03:28:47.460Z,99.90
2018-07-31T03:31:16.452Z,99.90
2018-07-31T03:33:45.344Z,99.90
2018-07-31T03:36:14.337Z,99.90
2018-07-31T03:38:43.340Z,99.90
2018-07-31T03:41:12.296Z,99.90
2018-07-31T03:43:41.274Z,99.90
2018-07-31T03:46:10.284Z,99.90
2018-07-31T03:48:39.250Z,99.90
2018-07-31T03:51:08.321Z,99.90
2018-07-31T03:53:37.307Z,99.90
2018-07-31T03:56:06.420Z,99.90
2018-07-31T03:58:35.411Z,99.90
2018-07-31T04:01:04.315Z,99.90
2018-07-31T04:03:33.253Z,99.90
2018-07-31T04:06:02.128Z,99.90
2018-07-31T04:08:31.021Z,99.90
2018-07-31T04:10:59.948Z,99.90
2018-07-31T04:13:28.847Z,99.90
2018-07-31T04:15:57.716Z,99.90
2018-07-31T04:18:26.629Z,99.90
2018-07-31T04:20:55.537Z,99.90
2018-07-31T04:23:24.436Z,99.90
2018-07-31T04:25:53.301Z,99.90
2018-07-31T04:28:22.228Z,99.90
2018-07-31T04:30:51.076Z,99.90
2018-07-31T04:33:19.968Z,99.90
2018-07-31T04:35:48.993Z,99.90
2018-07-31T04:38:17.899Z,99.90
2018-07-31T04:40:46.763Z,99.90
2018-07-31T04:43:15.639Z,99.90
2018-07-31T04:45:44.827Z,99.90
2018-07-31T04:48:13.745Z,99.90
2018-07-31T04:50:42.692Z,99.90
2018-07-31T04:53:11.640Z,99.90
2018-07-31T04:55:40.621Z,99.90
2018-07-31T04:58:09.605Z,99.90
2018-07-31T05:00:38.625Z,99.90
2018-07-31T05:03:07.571Z,99.90
2018-07-31T05:05:36.570Z,99.90
2018-07-31T05:08:05.692Z,99.90
2018-07-31T05:10:34.747Z,99.90
2018-07-31T05:13:03.665Z,99.90
2018-07-31T05:15:32.576Z,99.90
2018-07-31T05:18:01.425Z,99.90
2018-07-31T05:20:30.326Z,99.90
2018-07-31T05:22:59.204Z,99.90
2018-07-31T05:25:28.106Z,99.70
2018-07-31T05:27:56.957Z,99.20
2018-07-31T05:30:25.920Z,97.30
2018-07-31T05:32:54.938Z,96.70
2018-07-31T05:35:23.776Z,97.50
2018-07-31T05:37:52.656Z,95.20
2018-07-31T05:40:21.507Z,93.30
2018-07-31T05:42:50.412Z,94.30
2018-07-31T05:45:19.283Z,94.20
2018-07-31T05:47:48.192Z,93.40
2018-07-31T05:50:17.072Z,95.70
2018-07-31T05:52:46.045Z,94.70
2018-07-31T05:55:14.928Z,92.70
2018-07-31T05:57:43.864Z,90.80
2018-07-31T06:00:12.820Z,90.20
2018-07-31T06:02:41.797Z,90.60
2018-07-31T06:05:10.742Z,92.30
2018-07-31T06:07:39.691Z,94.40
2018-07-31T06:10:09.031Z,97.50
2018-07-31T06:12:38.057Z,98.00
2018-07-31T06:15:07.949Z,98.00
2018-07-31T06:17:36.956Z,95.80
2018-07-31T06:20:10.477Z,98.50
2018-07-31T06:22:39.448Z,99.70
2018-07-31T06:25:08.404Z,99.90
2018-07-31T06:27:37.526Z,99.90
2018-07-31T06:30:08.697Z,99.90
2018-07-31T06:32:37.595Z,99.90
2018-07-31T06:35:06.732Z,99.50
2018-07-31T06:37:35.645Z,98.90
2018-07-31T06:40:05.077Z,98.80
2018-07-31T06:42:33.996Z,99.30
2018-07-31T06:45:02.933Z,99.00
2018-07-31T06:47:31.828Z,99.10
2018-07-31T06:50:00.740Z,95.70
2018-07-31T06:52:29.608Z,95.10
2018-07-31T06:54:58.496Z,98.60
2018-07-31T06:57:27.364Z,99.90
2018-07-31T06:59:56.260Z,99.90
2018-07-31T07:02:25.119Z,99.90
2018-07-31T07:04:54.116Z,99.80
2018-07-31T07:07:22.981Z,99.90
2018-07-31T07:09:51.896Z,99.90
2018-07-31T07:12:20.823Z,98.90
2018-07-31T07:14:49.772Z,99.90
2018-07-31T07:17:18.672Z,94.30
2018-07-31T07:19:47.617Z,94.50
2018-07-31T07:22:16.499Z,93.70
2018-07-31T07:24:45.396Z,97.80
2018-07-31T07:27:14.244Z,99.20
2018-07-31T07:29:43.305Z,97.20
2018-07-31T07:32:12.217Z,93.60
2018-07-31T07:34:41.104Z,92.70
2018-07-31T07:37:10.025Z,93.30
2018-07-31T07:39:38.932Z,89.30
2018-07-31T07:42:07.925Z,95.70
2018-07-31T07:44:36.836Z,93.10
2018-07-31T07:47:05.783Z,91.70
2018-07-31T07:49:34.708Z,86.30
2018-07-31T07:52:03.684Z,85.50
2018-07-31T07:54:32.581Z,87.30
2018-07-31T07:57:01.481Z,85.90
2018-07-31T07:59:30.347Z,91.80
2018-07-31T08:01:59.267Z,93.60
2018-07-31T08:04:28.132Z,93.90
2018-07-31T08:06:57.052Z,95.10
2018-07-31T08:09:25.954Z,98.30
2018-07-31T08:11:54.912Z,96.60
2018-07-31T08:14:23.851Z,95.00
2018-07-31T08:16:52.781Z,93.00
2018-07-31T08:19:21.672Z,93.70
2018-07-31T08:21:50.585Z,95.70
2018-07-31T08:24:19.463Z,94.10
2018-07-31T08:26:48.372Z,93.20
2018-07-31T08:29:17.236Z,90.00
2018-07-31T08:31:46.150Z,91.10
2018-07-31T08:34:15.006Z,87.90
2018-07-31T08:36:43.856Z,90.30
2018-07-31T08:39:12.819Z,89.60
2018-07-31T08:41:41.730Z,90.20
2018-07-31T08:44:10.653Z,84.20
2018-07-31T08:46:39.549Z,80.80
2018-07-31T08:49:08.560Z,89.30
2018-07-31T08:51:37.569Z,86.70
2018-07-31T08:54:06.724Z,77.40
2018-07-31T08:56:35.799Z,82.20
2018-07-31T08:59:04.859Z,84.70
2018-07-31T09:01:33.751Z,90.10
2018-07-31T09:04:02.676Z,90.40
2018-07-31T09:06:31.532Z,89.70
2018-07-31T09:09:00.550Z,84.30
2018-07-31T09:11:29.392Z,87.20
2018-07-31T09:13:58.333Z,83.90
2018-07-31T09:16:27.213Z,76.50
2018-07-31T09:18:56.128Z,73.70
2018-07-31T09:21:25.039Z,79.50
2018-07-31T09:23:54.018Z,83.20
2018-07-31T09:26:22.876Z,81.90
2018-07-31T09:28:51.848Z,82.70
2018-07-31T09:31:20.771Z,87.30
2018-07-31T09:33:49.680Z,85.30
2018-07-31T09:36:18.595Z,83.80
2018-07-31T09:38:47.432Z,85.40
2018-07-31T09:41:16.344Z,85.90
2018-07-31T09:43:45.212Z,82.50
2018-07-31T09:46:14.108Z,83.20
2018-07-31T09:48:42.976Z,80.10
2018-07-31T09:51:11.864Z,81.50
2018-07-31T09:53:40.737Z,85.80
2018-07-31T09:56:09.690Z,90.00
2018-07-31T09:58:38.576Z,81.70
2018-07-31T10:01:12.904Z,75.20
2018-07-31T10:03:41.796Z,68.70
2018-07-31T10:06:10.740Z,76.50
2018-07-31T10:08:39.625Z,76.20
2018-07-31T10:11:08.603Z,67.00
2018-07-31T10:13:37.520Z,77.30
2018-07-31T10:16:06.482Z,72.60
2018-07-31T10:18:38.431Z,66.50
2018-07-31T10:21:07.604Z,73.40
2018-07-31T10:23:36.532Z,78.20
2018-07-31T10:26:05.597Z,83.90
2018-07-31T10:28:34.548Z,83.20
2018-07-31T10:31:03.558Z,80.70
2018-07-31T10:33:32.498Z,74.80
2018-07-31T10:36:01.495Z,70.30
2018-07-31T10:38:30.350Z,78.80
2018-07-31T10:40:59.248Z,71.40
2018-07-31T10:43:28.132Z,73.90
2018-07-31T10:45:56.995Z,75.40
2018-07-31T10:48:25.895Z,75.00
2018-07-31T10:50:54.759Z,70.90
2018-07-31T10:53:23.684Z,66.90
2018-07-31T10:55:52.572Z,71.70
2018-07-31T10:58:21.505Z,76.40
2018-07-31T11:00:50.407Z,77.70
2018-07-31T11:03:19.336Z,74.90
2018-07-31T11:05:48.204Z,70.80
2018-07-31T11:08:17.116Z,75.80
2018-07-31T11:10:46.031Z,75.70
2018-07-31T11:13:14.973Z,81.50
2018-07-31T11:15:43.845Z,76.00
2018-07-31T11:18:12.741Z,69.70
2018-07-31T11:20:41.616Z,69.50
2018-07-31T11:23:10.517Z,64.80
2018-07-31T11:25:39.596Z,69.10
2018-07-31T11:28:08.536Z,72.00
2018-07-31T11:30:37.491Z,71.50
2018-07-31T11:33:06.450Z,73.40
2018-07-31T11:35:35.396Z,73.80
2018-07-31T11:38:04.373Z,73.60
2018-07-31T11:40:33.240Z,75.10
2018-07-31T11:43:02.183Z,73.90
2018-07-31T11:45:31.093Z,71.40
2018-07-31T11:47:59.952Z,74.50
2018-07-31T11:50:28.853Z,72.60
2018-07-31T11:52:57.720Z,71.80
2018-07-31T11:55:26.608Z,71.80
2018-07-31T11:57:55.550Z,69.00
2018-07-31T12:00:24.468Z,69.50
2018-07-31T12:02:53.480Z,70.10
2018-07-31T12:05:22.423Z,71.30
2018-07-31T12:07:51.339Z,70.40
2018-07-31T12:10:20.256Z,69.40
2018-07-31T12:12:49.193Z,69.00
2018-07-31T12:15:18.130Z,71.10
2018-07-31T12:17:47.021Z,70.50
2018-07-31T12:20:15.964Z,74.70
2018-07-31T12:22:44.859Z,74.10
2018-07-31T12:25:13.788Z,72.50
2018-07-31T12:27:42.700Z,73.90
2018-07-31T12:30:11.840Z,74.90
2018-07-31T12:32:41.493Z,74.10
2018-07-31T12:35:10.761Z,74.70
2018-07-31T12:37:39.664Z,75.00
2018-07-31T12:40:08.745Z,77.20
2018-07-31T12:42:37.647Z,76.70
2018-07-31T12:45:06.667Z,75.20
2018-07-31T12:47:35.689Z,74.40
2018-07-31T12:50:04.853Z,72.40
2018-07-31T12:52:33.798Z,74.50
2018-07-31T12:55:03.020Z,72.80
2018-07-31T12:57:32.007Z,71.00
2018-07-31T13:00:00.962Z,73.60
2018-07-31T13:02:29.947Z,73.20
2018-07-31T13:04:58.828Z,73.10
2018-07-31T13:07:27.812Z,73.90
2018-07-31T13:09:56.696Z,72.70
2018-07-31T13:12:25.662Z,71.50
2018-07-31T13:14:54.572Z,70.10
2018-07-31T13:17:23.665Z,70.50
2018-07-31T13:19:52.561Z,71.40
2018-07-31T13:22:21.488Z,70.20
2018-07-31T13:24:50.467Z,72.40
2018-07-31T13:27:19.388Z,72.90
2018-07-31T13:29:48.293Z,72.30
2018-07-31T13:32:17.204Z,69.70
2018-07-31T13:34:46.101Z,68.20
2018-07-31T13:37:15.048Z,68.70
2018-07-31T13:39:43.939Z,71.20
2018-07-31T13:42:12.897Z,71.30
2018-07-31T13:44:41.809Z,66.80
2018-07-31T13:47:10.773Z,69.80
2018-07-31T13:49:39.728Z,70.00
2018-07-31T13:52:08.633Z,67.50
2018-07-31T13:54:37.589Z,68.00
2018-07-31T13:57:06.545Z,68.90
2018-07-31T13:59:35.581Z,67.60
2018-07-31T14:02:04.628Z,67.40
2018-07-31T14:04:33.676Z,68.00
2018-07-31T14:07:03.588Z,67.00
2018-07-31T14:09:32.539Z,67.10
2018-07-31T14:12:01.448Z,64.40
2018-07-31T14:14:30.365Z,66.80
2018-07-31T14:16:59.227Z,65.60
2018-07-31T14:19:28.132Z,61.90
2018-07-31T14:21:57.001Z,64.90
2018-07-31T14:24:25.998Z,60.80
2018-07-31T14:26:54.867Z,63.10
2018-07-31T14:29:23.796Z,63.90
2018-07-31T14:31:52.768Z,63.30
2018-07-31T14:34:21.736Z,61.20
2018-07-31T14:36:50.645Z,60.70
2018-07-31T14:39:19.544Z,60.60
2018-07-31T14:41:48.516Z,61.80
2018-07-31T14:44:17.446Z,60.10
2018-07-31T14:46:46.327Z,62.30
2018-07-31T14:49:15.216Z,59.40
2018-07-31T14:51:44.116Z,59.10
2018-07-31T14:54:13.024Z,58.40
2018-07-31T14:56:41.948Z,58.00
2018-07-31T14:59:10.849Z,56.50
2018-07-31T15:01:39.789Z,58.00
2018-07-31T15:04:08.731Z,58.50
2018-07-31T15:06:37.697Z,58.20
2018-07-31T15:09:08.844Z,58.40
2018-07-31T15:11:37.936Z,57.10
2018-07-31T15:14:06.855Z,56.90
2018-07-31T15:16:35.771Z,56.50
2018-07-31T15:19:04.795Z,56.50
2018-07-31T15:21:33.780Z,56.20
2018-07-31T15:24:02.683Z,56.80
2018-07-31T15:26:31.624Z,55.90
2018-07-31T15:29:00.496Z,56.20
2018-07-31T15:31:29.405Z,56.10
2018-07-31T15:33:58.288Z,56.40
2018-07-31T15:36:27.254Z,56.30
2018-07-31T15:38:56.120Z,55.20
2018-07-31T15:41:25.077Z,55.50
2018-07-31T15:43:53.949Z,54.20
2018-07-31T15:46:22.859Z,55.70
2018-07-31T15:48:51.792Z,55.00
2018-07-31T15:51:20.669Z,53.70
2018-07-31T15:53:49.599Z,54.90
2018-07-31T15:56:18.497Z,53.80
2018-07-31T15:58:47.380Z,55.00
2018-07-31T16:01:16.301Z,54.70
2018-07-31T16:03:45.193Z,54.50
2018-07-31T16:06:14.116Z,55.10
2018-07-31T16:08:43.009Z,54.40
2018-07-31T16:11:11.933Z,53.90
2018-07-31T16:13:40.816Z,53.60
2018-07-31T16:16:09.691Z,54.20
2018-07-31T16:18:40.021Z,54.10
2018-07-31T16:21:08.949Z,56.00
2018-07-31T16:23:37.967Z,56.70
2018-07-31T16:26:06.933Z,55.70
2018-07-31T16:28:35.920Z,56.80
2018-07-31T16:31:04.832Z,56.00
2018-07-31T16:33:33.746Z,55.80
2018-07-31T16:36:02.654Z,55.80
2018-07-31T16:38:31.592Z,56.30
2018-07-31T16:41:00.558Z,57.10
2018-07-31T16:43:29.496Z,55.60
2018-07-31T16:45:58.402Z,55.30
2018-07-31T16:48:27.330Z,56.70
2018-07-31T16:50:56.484Z,55.60
2018-07-31T16:53:25.385Z,56.80
2018-07-31T16:55:54.327Z,57.40
2018-07-31T16:58:23.217Z,56.80
2018-07-31T17:00:52.221Z,57.80
2018-07-31T17:03:21.120Z,57.60
2018-07-31T17:05:50.068Z,57.00
2018-07-31T17:08:18.924Z,57.20
2018-07-31T17:10:47.861Z,58.00
2018-07-31T17:13:16.733Z,57.00
2018-07-31T17:15:45.632Z,57.20
2018-07-31T17:18:14.518Z,56.40
2018-07-31T17:20:43.435Z,56.30
2018-07-31T17:23:12.321Z,56.80
2018-07-31T17:25:41.232Z,58.20
2018-07-31T17:28:10.112Z,60.70
2018-07-31T17:30:39.109Z,60.80
2018-07-31T17:33:08.040Z,63.00
2018-07-31T17:35:36.949Z,63.40
2018-07-31T17:38:06.129Z,62.50
2018-07-31T17:40:35.091Z,62.70
2018-07-31T17:43:04.013Z,63.80
2018-07-31T17:45:32.970Z,62.80
2018-07-31T17:48:01.931Z,64.50
2018-07-31T17:50:30.848Z,64.70
2018-07-31T17:52:59.769Z,64.80
2018-07-31T17:55:28.769Z,66.10
2018-07-31T17:57:57.724Z,66.60
2018-07-31T18:00:26.673Z,65.90
2018-07-31T18:02:55.629Z,66.30
2018-07-31T18:05:24.591Z,68.40
2018-07-31T18:07:53.544Z,68.80
2018-07-31T18:10:22.416Z,68.40
2018-07-31T18:12:51.344Z,67.10
2018-07-31T18:15:20.204Z,66.30
2018-07-31T18:17:49.117Z,67.10
2018-07-31T18:20:17.980Z,67.80
2018-07-31T18:22:46.877Z,68.80
2018-07-31T18:25:15.860Z,69.50
2018-07-31T18:27:44.773Z,71.50
2018-07-31T18:30:13.656Z,70.60
2018-07-31T18:32:42.586Z,70.10
2018-07-31T18:35:11.461Z,72.90
2018-07-31T18:37:40.370Z,71.80
2018-07-31T18:40:09.260Z,70.30
2018-07-31T18:42:38.325Z,72.00
2018-07-31T18:45:07.212Z,70.40
2018-07-31T18:47:36.097Z,70.30
2018-07-31T18:50:05.121Z,70.80
2018-07-31T18:52:34.000Z,71.20
2018-07-31T18:55:02.917Z,71.30
2018-07-31T18:57:31.828Z,72.50
2018-07-31T19:00:00.721Z,71.90
2018-07-31T19:02:29.636Z,71.60
2018-07-31T19:04:58.540Z,71.50
2018-07-31T19:07:27.503Z,71.00
2018-07-31T19:09:56.411Z,72.40
2018-07-31T19:12:25.332Z,72.40
2018-07-31T19:14:54.244Z,72.80
2018-07-31T19:17:23.124Z,72.90
2018-07-31T19:19:52.037Z,73.60
2018-07-31T19:22:20.899Z,73.10
2018-07-31T19:24:49.860Z,73.50
2018-07-31T19:27:18.776Z,74.10
2018-07-31T19:29:47.713Z,75.80
2018-07-31T19:32:16.600Z,75.20
2018-07-31T19:34:45.528Z,78.90
2018-07-31T19:37:14.402Z,78.40
2018-07-31T19:39:43.300Z,77.30
2018-07-31T19:42:12.195Z,79.90
2018-07-31T19:44:41.084Z,79.30
2018-07-31T19:47:10.021Z,82.30
2018-07-31T19:49:38.905Z,79.50
2018-07-31T19:52:07.921Z,81.20
2018-07-31T19:54:36.807Z,82.50
2018-07-31T19:57:05.912Z,80.50
2018-07-31T19:59:34.796Z,79.10
2018-07-31T20:02:03.728Z,80.20
2018-07-31T20:04:32.656Z,79.90
2018-07-31T20:07:01.633Z,79.30
2018-07-31T20:09:30.785Z,79.10
2018-07-31T20:11:59.740Z,79.40
2018-07-31T20:14:28.728Z,79.10
2018-07-31T20:16:57.764Z,78.00
2018-07-31T20:19:27.312Z,80.70
2018-07-31T20:21:56.276Z,79.10
2018-07-31T20:24:25.239Z,79.00
2018-07-31T20:26:54.127Z,76.70
2018-07-31T20:29:22.991Z,76.80
2018-07-31T20:31:51.897Z,77.70
2018-07-31T20:34:20.750Z,76.70
2018-07-31T20:36:49.687Z,77.70
2018-07-31T20:39:18.532Z,76.90
2018-07-31T20:41:47.481Z,78.40
2018-07-31T20:44:16.362Z,75.70
2018-07-31T20:46:45.227Z,78.50
2018-07-31T20:49:14.120Z,78.50
2018-07-31T20:51:42.991Z,77.90
2018-07-31T20:54:11.951Z,78.40
2018-07-31T20:56:40.797Z,77.10
2018-07-31T20:59:09.739Z,78.40
2018-07-31T21:01:38.596Z,79.10
2018-07-31T21:04:07.545Z,77.30
2018-07-31T21:06:36.412Z,77.40
2018-07-31T21:09:08.564Z,76.70
2018-07-31T21:11:37.485Z,77.00
2018-07-31T21:14:06.397Z,77.90
2018-07-31T21:16:35.412Z,77.80
2018-07-31T21:19:04.322Z,77.40
2018-07-31T21:21:33.235Z,76.70
2018-07-31T21:24:02.216Z,77.30
2018-07-31T21:26:31.162Z,77.30
2018-07-31T21:29:00.104Z,81.30
2018-07-31T21:31:29.054Z,79.20
2018-07-31T21:33:58.002Z,77.80
2018-07-31T21:36:26.940Z,79.30
2018-07-31T21:38:55.922Z,78.00
2018-07-31T21:41:24.847Z,78.30
2018-07-31T21:43:53.723Z,77.80
2018-07-31T21:46:22.636Z,78.20
2018-07-31T21:48:51.606Z,77.00
2018-07-31T21:51:20.504Z,78.00
2018-07-31T21:53:49.372Z,78.40
2018-07-31T21:56:18.293Z,76.60
2018-07-31T21:58:47.164Z,77.70
2018-07-31T22:01:16.248Z,76.90
2018-07-31T22:03:45.112Z,78.90
2018-07-31T22:06:14.028Z,78.80
2018-07-31T22:08:42.910Z,78.40
2018-07-31T22:11:11.854Z,80.40
2018-07-31T22:13:40.713Z,79.30
2018-07-31T22:16:09.645Z,80.40
2018-07-31T22:18:38.546Z,79.20
2018-07-31T22:21:07.511Z,79.40
2018-07-31T22:23:36.446Z,80.30
2018-07-31T22:26:05.388Z,81.80
2018-07-31T22:28:34.296Z,82.60
2018-07-31T22:31:03.248Z,83.40
2018-07-31T22:33:32.228Z,83.30
2018-07-31T22:36:01.152Z,83.90
2018-07-31T22:38:30.105Z,84.60
2018-07-31T22:40:59.016Z,85.70
2018-07-31T22:43:28.001Z,84.30
2018-07-31T22:45:56.994Z,83.90
2018-07-31T22:48:25.927Z,84.10
2018-07-31T22:50:54.842Z,84.20
2018-07-31T22:53:23.737Z,85.80
2018-07-31T22:55:52.644Z,88.60
2018-07-31T22:58:21.581Z,89.00
2018-07-31T23:00:50.463Z,88.40
2018-07-31T23:03:19.451Z,89.20
2018-07-31T23:05:48.366Z,90.00
2018-07-31T23:08:17.268Z,88.30
2018-07-31T23:10:46.150Z,89.30
2018-07-31T23:13:15.102Z,86.50
2018-07-31T23:15:43.983Z,87.10
2018-07-31T23:18:12.893Z,86.40
2018-07-31T23:20:41.824Z,90.10
2018-07-31T23:23:10.789Z,89.30
2018-07-31T23:25:39.721Z,89.20
2018-07-31T23:28:08.677Z,90.90
2018-07-31T23:30:37.548Z,91.20
2018-07-31T23:33:06.496Z,91.90
2018-07-31T23:35:35.372Z,90.30
2018-07-31T23:38:04.304Z,90.10
2018-07-31T23:40:33.251Z,90.60
2018-07-31T23:43:02.153Z,90.90
2018-07-31T23:45:31.140Z,91.20
2018-07-31T23:48:00.088Z,89.80
2018-07-31T23:50:29.110Z,90.90
2018-07-31T23:52:58.136Z,90.80
2018-07-31T23:55:27.098Z,90.00
2018-07-31T23:57:56.003Z,90.30
